Sheoaks, Victoria

4:25 AM AEST on July 29, 2016 (GMT +1000)
Lethbridge | | Change Station

Elev 620 ft 37.95 °S, 144.13 °E | Updated 7 minutes ago

Overcast
Overcast
50.1 °F
Feels Like 50.1 °F
N
13.0
Wind Variable Wind from West
Gusts 30.0 mph

Today
High -- | Low -- °F
--% Chance of Precip.
Yesterday
High -- | Low -- °F
Precip. -- in
Pressure 30.09 in
Visibility 6.2 miles
Clouds Overcast 4400 ft
Dew Point 45 °F
Humidity 83%
Rainfall 0.00 in
Snow Depth Not available.
7:26 AM 5:33 PM
Waning Crescent, 30% visible
METAR YMAV 281800Z AUTO 32010KT 9999 // OVC044 12/07 Q1019
Pressure 30.09 in
Visibility 6.2 miles
Clouds Overcast 4400 ft
Dew Point 45 °F
Humidity 83%
Rainfall 0.00 in
Snow Depth Not available.
7:26 AM 5:33 PM
Waning Crescent, 30% visible
METAR YMAV 281800Z AUTO 32010KT 9999 // OVC044 12/07 Q1019

10-Day Weather Forecast

Almanac

Astronomy

Jul. 29, 2016 Rise Set
Actual Time
Civil Twilight
Nautical Twilight
Astronomical Twilight
Moon
Length of Visible Light
Length of Day
Tomorrow will be .
, % of the Moon is Illuminated

Today's Extremes

Country Highs Country Lows

Community

WunderPhotos

Upload Photos

1,928,174 photos uploaded!

WunderBlog® & News

Nearby

Air Quality

  Air Quality AQ Index Pollutant
Not available.

Snow Depth

Station Depth Elevation

Earthquake Activity

City Distance Mag. Time & Date
Minimum magnitude displayed is 2.5.

Coastal Water Temperatures

Place Temperature

Stations

Nearby Weather Stations

Station Location Temp. Windchill Dew Point Humidity Wind Precip. Elev Updated Type